sensor_id;sensor_type;location;lat;lon;timestamp;temperature;humidity
23259;DHT22;11798;51.528;7.240;2022-08-11T00:00:19;20.00;99.90
23259;DHT22;11798;51.528;7.240;2022-08-11T00:02:49;20.00;99.90
23259;DHT22;11798;51.528;7.240;2022-08-11T00:05:18;20.00;99.90
23259;DHT22;11798;51.528;7.240;2022-08-11T00:07:50;20.00;99.90
23259;DHT22;11798;51.528;7.240;2022-08-11T00:10:25;19.90;99.90
23259;DHT22;11798;51.528;7.240;2022-08-11T00:15:17;19.90;99.90
23259;DHT22;11798;51.528;7.240;2022-08-11T00:17:44;19.80;99.90
23259;DHT22;11798;51.528;7.240;2022-08-11T00:20:12;19.80;99.90
23259;DHT22;11798;51.528;7.240;2022-08-11T00:22:41;19.80;99.90
23259;DHT22;11798;51.528;7.240;2022-08-11T00:25:16;19.70;99.90
23259;DHT22;11798;51.528;7.240;2022-08-11T00:27:42;19.70;99.90
23259;DHT22;11798;51.528;7.240;2022-08-11T00:30:10;19.70;99.90
23259;DHT22;11798;51.528;7.240;2022-08-11T00:32:38;19.60;99.90
23259;DHT22;11798;51.528;7.240;2022-08-11T00:35:08;19.60;99.90
23259;DHT22;11798;51.528;7.240;2022-08-11T00:37:36;19.60;99.90
23259;DHT22;11798;51.528;7.240;2022-08-11T00:40:04;19.50;99.90
23259;DHT22;11798;51.528;7.240;2022-08-11T00:43:00;19.50;99.90
23259;DHT22;11798;51.528;7.240;2022-08-11T00:45:38;19.50;99.90
23259;DHT22;11798;51.528;7.240;2022-08-11T00:48:27;19.40;99.90
23259;DHT22;11798;51.528;7.240;2022-08-11T01:04:55;19.00;99.90
23259;DHT22;11798;51.528;7.240;2022-08-11T01:07:57;19.00;99.90
23259;DHT22;11798;51.528;7.240;2022-08-11T01:13:14;18.90;99.90
23259;DHT22;11798;51.528;7.240;2022-08-11T01:16:04;18.90;99.90
23259;DHT22;11798;51.528;7.240;2022-08-11T01:33:03;18.70;99.90
23259;DHT22;11798;51.528;7.240;2022-08-11T01:39:00;18.60;99.90
23259;DHT22;11798;51.528;7.240;2022-08-11T01:42:18;18.60;99.90
23259;DHT22;11798;51.528;7.240;2022-08-11T01:47:48;18.50;99.90
23259;DHT22;11798;51.528;7.240;2022-08-11T01:50:36;18.40;99.90
23259;DHT22;11798;51.528;7.240;2022-08-11T01:56:10;18.40;99.90
23259;DHT22;11798;51.528;7.240;2022-08-11T01:59:42;18.30;99.90
23259;DHT22;11798;51.528;7.240;2022-08-11T02:02:02;18.30;99.90
23259;DHT22;11798;51.528;7.240;2022-08-11T02:04:40;18.20;99.90
23259;DHT22;11798;51.528;7.240;2022-08-11T02:12:43;18.10;99.90
23259;DHT22;11798;51.528;7.240;2022-08-11T02:15:16;18.10;99.90
23259;DHT22;11798;51.528;7.240;2022-08-11T02:20:23;18.10;99.90
23259;DHT22;11798;51.528;7.240;2022-08-11T02:23:25;18.10;99.90
23259;DHT22;11798;51.528;7.240;2022-08-11T02:37:26;17.90;99.90
23259;DHT22;11798;51.528;7.240;2022-08-11T02:40:09;17.80;99.90
23259;DHT22;11798;51.528;7.240;2022-08-11T02:57:01;17.70;99.90
23259;DHT22;11798;51.528;7.240;2022-08-11T02:59:35;17.60;99.90
23259;DHT22;11798;51.528;7.240;2022-08-11T03:10:21;17.40;99.90
23259;DHT22;11798;51.528;7.240;2022-08-11T03:19:27;17.30;99.90
23259;DHT22;11798;51.528;7.240;2022-08-11T03:22:22;17.30;99.90
23259;DHT22;11798;51.528;7.240;2022-08-11T03:28:02;17.30;99.90
23259;DHT22;11798;51.528;7.240;2022-08-11T03:30:49;17.30;99.90
23259;DHT22;11798;51.528;7.240;2022-08-11T03:33:32;17.30;99.90
23259;DHT22;11798;51.528;7.240;2022-08-11T03:39:05;17.30;99.90
23259;DHT22;11798;51.528;7.240;2022-08-11T03:44:33;17.20;99.90
23259;DHT22;11798;51.528;7.240;2022-08-11T03:50:31;17.20;99.90
23259;DHT22;11798;51.528;7.240;2022-08-11T03:53:23;17.20;99.90
23259;DHT22;11798;51.528;7.240;2022-08-11T03:56:39;17.10;99.90
23259;DHT22;11798;51.528;7.240;2022-08-11T04:16:38;16.90;99.90
23259;DHT22;11798;51.528;7.240;2022-08-11T04:19:28;16.90;99.90
23259;DHT22;11798;51.528;7.240;2022-08-11T04:30:27;16.80;99.90
23259;DHT22;11798;51.528;7.240;2022-08-11T04:57:17;16.80;99.90
23259;DHT22;11798;51.528;7.240;2022-08-11T05:00:06;16.80;99.90
23259;DHT22;11798;51.528;7.240;2022-08-11T05:03:34;16.80;99.90
23259;DHT22;11798;51.528;7.240;2022-08-11T05:06:33;16.90;99.90
23259;DHT22;11798;51.528;7.240;2022-08-11T05:14:51;16.90;99.90
23259;DHT22;11798;51.528;7.240;2022-08-11T05:17:52;17.00;99.90
23259;DHT22;11798;51.528;7.240;2022-08-11T05:20:49;17.00;99.90
23259;DHT22;11798;51.528;7.240;2022-08-11T05:23:39;17.00;99.90
23259;DHT22;11798;51.528;7.240;2022-08-11T05:26:24;17.10;99.90
23259;DHT22;11798;51.528;7.240;2022-08-11T05:32:21;17.20;99.90
23259;DHT22;11798;51.528;7.240;2022-08-11T05:35:06;17.20;99.90
23259;DHT22;11798;51.528;7.240;2022-08-11T05:37:40;17.30;99.90
23259;DHT22;11798;51.528;7.240;2022-08-11T05:40:11;17.40;99.90
23259;DHT22;11798;51.528;7.240;2022-08-11T05:43:01;17.50;99.90
23259;DHT22;11798;51.528;7.240;2022-08-11T05:45:57;17.50;99.90
23259;DHT22;11798;51.528;7.240;2022-08-11T05:48:42;17.60;99.90
23259;DHT22;11798;51.528;7.240;2022-08-11T05:51:36;17.70;99.90
23259;DHT22;11798;51.528;7.240;2022-08-11T05:54:23;17.80;99.90
23259;DHT22;11798;51.528;7.240;2022-08-11T05:57:09;17.90;99.90
23259;DHT22;11798;51.528;7.240;2022-08-11T05:59:44;18.00;99.90
23259;DHT22;11798;51.528;7.240;2022-08-11T06:02:11;18.10;99.90
23259;DHT22;11798;51.528;7.240;2022-08-11T06:04:37;18.20;99.90
23259;DHT22;11798;51.528;7.240;2022-08-11T06:07:11;18.30;99.90
23259;DHT22;11798;51.528;7.240;2022-08-11T06:12:21;18.50;99.90
23259;DHT22;11798;51.528;7.240;2022-08-11T06:14:51;18.60;99.90
23259;DHT22;11798;51.528;7.240;2022-08-11T06:17:28;18.70;99.90
23259;DHT22;11798;51.528;7.240;2022-08-11T06:20:03;18.80;99.90
23259;DHT22;11798;51.528;7.240;2022-08-11T06:22:30;19.00;99.90
23259;DHT22;11798;51.528;7.240;2022-08-11T06:24:59;19.10;99.90
23259;DHT22;11798;51.528;7.240;2022-08-11T06:27:26;19.20;99.90
23259;DHT22;11798;51.528;7.240;2022-08-11T06:29:54;19.30;99.90
23259;DHT22;11798;51.528;7.240;2022-08-11T06:32:27;19.40;99.90
23259;DHT22;11798;51.528;7.240;2022-08-11T06:35:25;19.50;99.90
23259;DHT22;11798;51.528;7.240;2022-08-11T06:38:26;19.60;99.90
23259;DHT22;11798;51.528;7.240;2022-08-11T06:40:57;19.80;99.90
23259;DHT22;11798;51.528;7.240;2022-08-11T06:44:26;19.90;99.90
23259;DHT22;11798;51.528;7.240;2022-08-11T06:46:53;20.00;99.90
23259;DHT22;11798;51.528;7.240;2022-08-11T06:49:33;20.10;99.90
23259;DHT22;11798;51.528;7.240;2022-08-11T06:52:19;20.20;99.90
23259;DHT22;11798;51.528;7.240;2022-08-11T06:54:53;20.30;99.90
23259;DHT22;11798;51.528;7.240;2022-08-11T06:57:21;20.40;99.90
23259;DHT22;11798;51.528;7.240;2022-08-11T07:00:06;20.50;99.90
23259;DHT22;11798;51.528;7.240;2022-08-11T07:03:06;20.70;99.90
23259;DHT22;11798;51.528;7.240;2022-08-11T07:06:56;20.70;99.90
23259;DHT22;11798;51.528;7.240;2022-08-11T07:12:14;21.00;99.90
23259;DHT22;11798;51.528;7.240;2022-08-11T07:15:05;21.10;99.90
23259;DHT22;11798;51.528;7.240;2022-08-11T07:17:52;21.20;99.90
23259;DHT22;11798;51.528;7.240;2022-08-11T07:20:38;21.40;99.90
23259;DHT22;11798;51.528;7.240;2022-08-11T07:23:24;21.40;99.90
23259;DHT22;11798;51.528;7.240;2022-08-11T07:26:09;21.60;99.90
23259;DHT22;11798;51.528;7.240;2022-08-11T07:28:54;21.60;99.90
23259;DHT22;11798;51.528;7.240;2022-08-11T07:31:45;21.70;99.90
23259;DHT22;11798;51.528;7.240;2022-08-11T07:34:14;21.80;99.90
23259;DHT22;11798;51.528;7.240;2022-08-11T07:36:51;21.90;99.90
23259;DHT22;11798;51.528;7.240;2022-08-11T07:39:26;21.90;99.90
23259;DHT22;11798;51.528;7.240;2022-08-11T07:41:54;22.00;99.90
23259;DHT22;11798;51.528;7.240;2022-08-11T07:44:22;22.10;99.90
23259;DHT22;11798;51.528;7.240;2022-08-11T07:46:53;22.20;99.90
23259;DHT22;11798;51.528;7.240;2022-08-11T07:49:39;22.30;99.90
23259;DHT22;11798;51.528;7.240;2022-08-11T07:52:29;22.40;99.90
23259;DHT22;11798;51.528;7.240;2022-08-11T07:55:04;22.50;99.90
23259;DHT22;11798;51.528;7.240;2022-08-11T07:57:32;22.50;99.90
23259;DHT22;11798;51.528;7.240;2022-08-11T08:00:17;22.60;99.90
23259;DHT22;11798;51.528;7.240;2022-08-11T08:03:03;22.70;99.90
23259;DHT22;11798;51.528;7.240;2022-08-11T08:05:48;22.80;99.90
23259;DHT22;11798;51.528;7.240;2022-08-11T08:08:34;22.80;99.90
23259;DHT22;11798;51.528;7.240;2022-08-11T08:11:19;22.90;99.90
23259;DHT22;11798;51.528;7.240;2022-08-11T08:14:06;23.00;99.90
23259;DHT22;11798;51.528;7.240;2022-08-11T08:16:51;23.10;99.90
23259;DHT22;11798;51.528;7.240;2022-08-11T08:19:36;23.20;99.90
23259;DHT22;11798;51.528;7.240;2022-08-11T08:22:02;23.40;99.90
23259;DHT22;11798;51.528;7.240;2022-08-11T08:24:28;23.40;99.90
23259;DHT22;11798;51.528;7.240;2022-08-11T08:26:54;23.50;99.90
23259;DHT22;11798;51.528;7.240;2022-08-11T08:29:31;23.70;99.90
23259;DHT22;11798;51.528;7.240;2022-08-11T08:32:17;23.70;99.90
23259;DHT22;11798;51.528;7.240;2022-08-11T08:34:44;23.80;99.90
23259;DHT22;11798;51.528;7.240;2022-08-11T08:37:10;23.80;99.90
23259;DHT22;11798;51.528;7.240;2022-08-11T08:39:37;23.90;99.90
23259;DHT22;11798;51.528;7.240;2022-08-11T08:42:09;24.00;99.90
23259;DHT22;11798;51.528;7.240;2022-08-11T08:44:40;24.10;99.90
23259;DHT22;11798;51.528;7.240;2022-08-11T08:47:09;24.20;99.90
23259;DHT22;11798;51.528;7.240;2022-08-11T08:49:40;24.30;99.90
23259;DHT22;11798;51.528;7.240;2022-08-11T08:52:11;24.40;99.90
23259;DHT22;11798;51.528;7.240;2022-08-11T08:54:40;24.50;99.90
23259;DHT22;11798;51.528;7.240;2022-08-11T08:57:08;24.60;99.90
23259;DHT22;11798;51.528;7.240;2022-08-11T08:59:37;24.70;99.90
23259;DHT22;11798;51.528;7.240;2022-08-11T09:02:05;24.80;99.90
23259;DHT22;11798;51.528;7.240;2022-08-11T09:04:32;24.90;99.90
23259;DHT22;11798;51.528;7.240;2022-08-11T09:07:02;25.00;99.90
23259;DHT22;11798;51.528;7.240;2022-08-11T09:09:31;25.10;99.90
23259;DHT22;11798;51.528;7.240;2022-08-11T09:11:57;25.10;99.90
23259;DHT22;11798;51.528;7.240;2022-08-11T09:14:26;25.20;99.90
23259;DHT22;11798;51.528;7.240;2022-08-11T09:17:13;25.30;99.90
23259;DHT22;11798;51.528;7.240;2022-08-11T09:19:39;25.40;99.90
23259;DHT22;11798;51.528;7.240;2022-08-11T09:22:05;25.50;99.90
23259;DHT22;11798;51.528;7.240;2022-08-11T09:24:50;25.60;99.90
23259;DHT22;11798;51.528;7.240;2022-08-11T09:27:34;25.70;99.90
23259;DHT22;11798;51.528;7.240;2022-08-11T09:30:00;25.80;99.90
23259;DHT22;11798;51.528;7.240;2022-08-11T09:32:26;25.90;99.90
23259;DHT22;11798;51.528;7.240;2022-08-11T09:34:53;25.90;99.90
23259;DHT22;11798;51.528;7.240;2022-08-11T09:37:21;25.90;99.90
23259;DHT22;11798;51.528;7.240;2022-08-11T09:40:07;26.10;99.90
23259;DHT22;11798;51.528;7.240;2022-08-11T09:42:52;26.10;99.90
23259;DHT22;11798;51.528;7.240;2022-08-11T09:45:37;26.20;99.90
23259;DHT22;11798;51.528;7.240;2022-08-11T09:48:03;26.30;99.90
23259;DHT22;11798;51.528;7.240;2022-08-11T09:50:32;26.40;99.90
23259;DHT22;11798;51.528;7.240;2022-08-11T09:52:58;26.40;99.90
23259;DHT22;11798;51.528;7.240;2022-08-11T09:55:24;26.50;99.90
23259;DHT22;11798;51.528;7.240;2022-08-11T09:57:50;26.50;99.90
23259;DHT22;11798;51.528;7.240;2022-08-11T10:00:36;26.60;99.90
23259;DHT22;11798;51.528;7.240;2022-08-11T10:03:10;26.70;99.90
23259;DHT22;11798;51.528;7.240;2022-08-11T10:05:37;26.80;99.90
23259;DHT22;11798;51.528;7.240;2022-08-11T10:08:26;26.80;99.90
23259;DHT22;11798;51.528;7.240;2022-08-11T10:10:54;26.90;99.90
23259;DHT22;11798;51.528;7.240;2022-08-11T10:13:21;27.00;99.90
23259;DHT22;11798;51.528;7.240;2022-08-11T10:15:53;27.10;99.90
23259;DHT22;11798;51.528;7.240;2022-08-11T10:18:33;27.10;99.90
23259;DHT22;11798;51.528;7.240;2022-08-11T10:21:29;27.00;99.90
23259;DHT22;11798;51.528;7.240;2022-08-11T10:23:59;27.10;99.90
23259;DHT22;11798;51.528;7.240;2022-08-11T10:26:46;27.30;99.90
23259;DHT22;11798;51.528;7.240;2022-08-11T10:32:04;27.40;99.90
23259;DHT22;11798;51.528;7.240;2022-08-11T10:34:49;27.50;99.90
23259;DHT22;11798;51.528;7.240;2022-08-11T10:37:16;27.70;99.90
23259;DHT22;11798;51.528;7.240;2022-08-11T10:39:44;27.70;99.90
23259;DHT22;11798;51.528;7.240;2022-08-11T10:42:10;27.70;99.90
23259;DHT22;11798;51.528;7.240;2022-08-11T10:44:57;27.80;99.90
23259;DHT22;11798;51.528;7.240;2022-08-11T10:47:24;27.80;99.90
23259;DHT22;11798;51.528;7.240;2022-08-11T10:50:07;27.90;99.90
23259;DHT22;11798;51.528;7.240;2022-08-11T10:52:52;27.80;99.90
23259;DHT22;11798;51.528;7.240;2022-08-11T10:55:37;27.90;99.90
23259;DHT22;11798;51.528;7.240;2022-08-11T10:58:22;28.00;99.90
23259;DHT22;11798;51.528;7.240;2022-08-11T11:01:08;28.10;99.90
23259;DHT22;11798;51.528;7.240;2022-08-11T11:03:35;28.10;99.90
23259;DHT22;11798;51.528;7.240;2022-08-11T11:06:54;28.20;99.90
23259;DHT22;11798;51.528;7.240;2022-08-11T11:09:01;28.30;99.90
23259;DHT22;11798;51.528;7.240;2022-08-11T11:11:30;28.20;99.90
23259;DHT22;11798;51.528;7.240;2022-08-11T11:14:18;28.20;99.90
23259;DHT22;11798;51.528;7.240;2022-08-11T11:17:07;28.10;99.90
23259;DHT22;11798;51.528;7.240;2022-08-11T11:19:56;28.10;99.90
23259;DHT22;11798;51.528;7.240;2022-08-11T11:22:24;28.30;99.90
23259;DHT22;11798;51.528;7.240;2022-08-11T11:25:57;28.30;99.90
23259;DHT22;11798;51.528;7.240;2022-08-11T11:28:24;28.40;99.90
23259;DHT22;11798;51.528;7.240;2022-08-11T11:36:49;28.50;99.90
23259;DHT22;11798;51.528;7.240;2022-08-11T11:39:22;28.40;99.90
23259;DHT22;11798;51.528;7.240;2022-08-11T11:41:49;28.60;99.90
23259;DHT22;11798;51.528;7.240;2022-08-11T11:44:16;28.40;99.90
23259;DHT22;11798;51.528;7.240;2022-08-11T11:46:44;28.30;99.90
23259;DHT22;11798;51.528;7.240;2022-08-11T11:49:11;28.30;99.90
23259;DHT22;11798;51.528;7.240;2022-08-11T11:51:37;28.30;99.90
23259;DHT22;11798;51.528;7.240;2022-08-11T11:54:04;28.50;99.90
23259;DHT22;11798;51.528;7.240;2022-08-11T11:56:30;28.60;99.90
23259;DHT22;11798;51.528;7.240;2022-08-11T11:58:57;28.60;99.90
23259;DHT22;11798;51.528;7.240;2022-08-11T12:01:42;28.80;99.90
23259;DHT22;11798;51.528;7.240;2022-08-11T12:04:11;28.80;99.90
23259;DHT22;11798;51.528;7.240;2022-08-11T12:06:38;28.90;99.90
23259;DHT22;11798;51.528;7.240;2022-08-11T12:09:04;29.10;99.90
23259;DHT22;11798;51.528;7.240;2022-08-11T12:11:31;29.00;99.90
23259;DHT22;11798;51.528;7.240;2022-08-11T12:14:17;29.00;99.90
23259;DHT22;11798;51.528;7.240;2022-08-11T12:16:45;29.10;99.90
23259;DHT22;11798;51.528;7.240;2022-08-11T12:19:17;29.20;99.90
23259;DHT22;11798;51.528;7.240;2022-08-11T12:21:45;29.30;99.90
23259;DHT22;11798;51.528;7.240;2022-08-11T12:24:32;29.30;99.70
23259;DHT22;11798;51.528;7.240;2022-08-11T12:27:18;29.20;99.90
23259;DHT22;11798;51.528;7.240;2022-08-11T12:29:52;29.20;99.60
23259;DHT22;11798;51.528;7.240;2022-08-11T12:32:20;29.20;99.60
23259;DHT22;11798;51.528;7.240;2022-08-11T12:34:47;29.00;98.60
23259;DHT22;11798;51.528;7.240;2022-08-11T12:37:16;29.00;99.90
23259;DHT22;11798;51.528;7.240;2022-08-11T12:39:46;29.10;99.60
23259;DHT22;11798;51.528;7.240;2022-08-11T12:42:33;29.20;99.40
23259;DHT22;11798;51.528;7.240;2022-08-11T12:45:23;29.20;99.20
23259;DHT22;11798;51.528;7.240;2022-08-11T12:48:09;29.20;99.60
23259;DHT22;11798;51.528;7.240;2022-08-11T12:51:02;29.10;99.90
23259;DHT22;11798;51.528;7.240;2022-08-11T12:54:15;29.20;99.70
23259;DHT22;11798;51.528;7.240;2022-08-11T12:56:46;29.40;98.70
23259;DHT22;11798;51.528;7.240;2022-08-11T12:59:31;29.40;99.30
23259;DHT22;11798;51.528;7.240;2022-08-11T13:02:17;29.40;98.90
23259;DHT22;11798;51.528;7.240;2022-08-11T13:05:04;29.40;98.40
23259;DHT22;11798;51.528;7.240;2022-08-11T13:07:31;29.40;98.40
23259;DHT22;11798;51.528;7.240;2022-08-11T13:10:00;29.40;98.20
23259;DHT22;11798;51.528;7.240;2022-08-11T13:12:26;29.40;98.70
23259;DHT22;11798;51.528;7.240;2022-08-11T13:15:17;29.40;98.30
23259;DHT22;11798;51.528;7.240;2022-08-11T13:17:48;29.40;98.40
23259;DHT22;11798;51.528;7.240;2022-08-11T13:20:17;29.40;97.80
23259;DHT22;11798;51.528;7.240;2022-08-11T13:22:47;29.40;98.10
23259;DHT22;11798;51.528;7.240;2022-08-11T13:25:18;29.50;97.80
23259;DHT22;11798;51.528;7.240;2022-08-11T13:27:46;29.50;97.60
23259;DHT22;11798;51.528;7.240;2022-08-11T13:30:14;29.50;97.60
23259;DHT22;11798;51.528;7.240;2022-08-11T13:33:00;29.50;97.20
23259;DHT22;11798;51.528;7.240;2022-08-11T13:35:28;29.50;96.20
23259;DHT22;11798;51.528;7.240;2022-08-11T13:37:55;29.50;96.60
23259;DHT22;11798;51.528;7.240;2022-08-11T13:40:22;29.50;96.30
23259;DHT22;11798;51.528;7.240;2022-08-11T13:42:50;29.40;96.00
23259;DHT22;11798;51.528;7.240;2022-08-11T13:45:17;29.30;95.80
23259;DHT22;11798;51.528;7.240;2022-08-11T13:47:44;29.40;96.00
23259;DHT22;11798;51.528;7.240;2022-08-11T13:50:11;29.40;96.50
23259;DHT22;11798;51.528;7.240;2022-08-11T13:52:40;29.40;96.20
23259;DHT22;11798;51.528;7.240;2022-08-11T13:55:09;29.50;95.70
23259;DHT22;11798;51.528;7.240;2022-08-11T13:57:55;29.50;95.80
23259;DHT22;11798;51.528;7.240;2022-08-11T14:00:21;29.60;96.30
23259;DHT22;11798;51.528;7.240;2022-08-11T14:02:48;29.60;95.20
23259;DHT22;11798;51.528;7.240;2022-08-11T14:05:17;29.50;95.40
23259;DHT22;11798;51.528;7.240;2022-08-11T14:07:58;29.50;95.70
23259;DHT22;11798;51.528;7.240;2022-08-11T14:10:28;29.50;95.70
23259;DHT22;11798;51.528;7.240;2022-08-11T14:12:59;29.60;95.10
23259;DHT22;11798;51.528;7.240;2022-08-11T14:15:46;29.70;95.80
23259;DHT22;11798;51.528;7.240;2022-08-11T14:18:25;29.80;95.40
23259;DHT22;11798;51.528;7.240;2022-08-11T14:20:59;29.80;94.40
23259;DHT22;11798;51.528;7.240;2022-08-11T14:23:46;29.60;93.60
23259;DHT22;11798;51.528;7.240;2022-08-11T14:26:15;29.80;94.40
23259;DHT22;11798;51.528;7.240;2022-08-11T14:28:59;29.80;95.10
23259;DHT22;11798;51.528;7.240;2022-08-11T14:31:28;29.90;94.60
23259;DHT22;11798;51.528;7.240;2022-08-11T14:33:55;30.00;94.20
23259;DHT22;11798;51.528;7.240;2022-08-11T14:36:23;30.00;93.70
23259;DHT22;11798;51.528;7.240;2022-08-11T14:38:50;30.10;93.60
23259;DHT22;11798;51.528;7.240;2022-08-11T14:41:18;30.20;93.00
23259;DHT22;11798;51.528;7.240;2022-08-11T14:44:04;30.40;92.70
23259;DHT22;11798;51.528;7.240;2022-08-11T14:46:48;30.40;92.20
23259;DHT22;11798;51.528;7.240;2022-08-11T14:49:34;30.40;92.10
23259;DHT22;11798;51.528;7.240;2022-08-11T14:52:12;30.50;92.20
23259;DHT22;11798;51.528;7.240;2022-08-11T14:54:44;30.80;92.80
23259;DHT22;11798;51.528;7.240;2022-08-11T14:57:31;30.80;91.50
23259;DHT22;11798;51.528;7.240;2022-08-11T14:59:59;31.00;91.60
23259;DHT22;11798;51.528;7.240;2022-08-11T15:02:25;31.10;91.50
23259;DHT22;11798;51.528;7.240;2022-08-11T15:05:11;31.20;90.80
23259;DHT22;11798;51.528;7.240;2022-08-11T15:07:37;31.30;91.50
23259;DHT22;11798;51.528;7.240;2022-08-11T15:10:06;31.50;91.30
23259;DHT22;11798;51.528;7.240;2022-08-11T15:12:34;31.60;91.10
23259;DHT22;11798;51.528;7.240;2022-08-11T15:15:01;31.70;91.10
23259;DHT22;11798;51.528;7.240;2022-08-11T15:17:54;32.00;90.70
23259;DHT22;11798;51.528;7.240;2022-08-11T15:20:21;31.90;90.90
23259;DHT22;11798;51.528;7.240;2022-08-11T15:23:07;32.00;90.70
23259;DHT22;11798;51.528;7.240;2022-08-11T15:26:04;32.10;90.80
23259;DHT22;11798;51.528;7.240;2022-08-11T15:28:35;32.10;90.90
23259;DHT22;11798;51.528;7.240;2022-08-11T15:31:22;32.10;90.00
23259;DHT22;11798;51.528;7.240;2022-08-11T15:33:54;32.20;90.10
23259;DHT22;11798;51.528;7.240;2022-08-11T15:36:42;32.40;90.40
23259;DHT22;11798;51.528;7.240;2022-08-11T15:39:33;32.50;90.30
23259;DHT22;11798;51.528;7.240;2022-08-11T15:42:03;32.50;89.90
23259;DHT22;11798;51.528;7.240;2022-08-11T15:44:54;32.60;89.80
23259;DHT22;11798;51.528;7.240;2022-08-11T15:47:47;32.60;88.30
23259;DHT22;11798;51.528;7.240;2022-08-11T15:50:16;32.60;87.00
23259;DHT22;11798;51.528;7.240;2022-08-11T15:52:51;32.70;87.30
23259;DHT22;11798;51.528;7.240;2022-08-11T15:55:18;33.20;88.80
23259;DHT22;11798;51.528;7.240;2022-08-11T15:57:47;33.20;85.80
23259;DHT22;11798;51.528;7.240;2022-08-11T16:00:32;32.70;86.70
23259;DHT22;11798;51.528;7.240;2022-08-11T16:03:18;32.30;87.80
23259;DHT22;11798;51.528;7.240;2022-08-11T16:06:02;32.10;86.60
23259;DHT22;11798;51.528;7.240;2022-08-11T16:08:28;31.60;86.70
23259;DHT22;11798;51.528;7.240;2022-08-11T16:10:55;31.30;86.50
23259;DHT22;11798;51.528;7.240;2022-08-11T16:13:22;31.20;87.60
23259;DHT22;11798;51.528;7.240;2022-08-11T16:15:52;31.10;88.30
23259;DHT22;11798;51.528;7.240;2022-08-11T16:18:55;30.90;88.60
23259;DHT22;11798;51.528;7.240;2022-08-11T16:21:32;30.50;87.80
23259;DHT22;11798;51.528;7.240;2022-08-11T16:24:00;30.40;88.40
23259;DHT22;11798;51.528;7.240;2022-08-11T16:26:28;30.20;88.20
23259;DHT22;11798;51.528;7.240;2022-08-11T16:28:57;30.10;88.60
23259;DHT22;11798;51.528;7.240;2022-08-11T16:31:24;30.00;89.60
23259;DHT22;11798;51.528;7.240;2022-08-11T16:33:53;29.90;88.10
23259;DHT22;11798;51.528;7.240;2022-08-11T16:36:20;29.70;89.00
23259;DHT22;11798;51.528;7.240;2022-08-11T16:39:06;29.60;88.40
23259;DHT22;11798;51.528;7.240;2022-08-11T16:41:35;29.50;89.10
23259;DHT22;11798;51.528;7.240;2022-08-11T16:44:21;29.50;89.10
23259;DHT22;11798;51.528;7.240;2022-08-11T16:47:10;29.40;88.60
23259;DHT22;11798;51.528;7.240;2022-08-11T16:49:43;29.30;88.90
23259;DHT22;11798;51.528;7.240;2022-08-11T16:52:11;29.20;88.20
23259;DHT22;11798;51.528;7.240;2022-08-11T16:54:38;29.10;87.90
23259;DHT22;11798;51.528;7.240;2022-08-11T16:57:09;29.10;88.40
23259;DHT22;11798;51.528;7.240;2022-08-11T16:59:57;29.00;88.70
23259;DHT22;11798;51.528;7.240;2022-08-11T17:02:36;29.00;89.30
23259;DHT22;11798;51.528;7.240;2022-08-11T17:05:23;28.90;89.50
23259;DHT22;11798;51.528;7.240;2022-08-11T17:08:09;28.90;90.10
23259;DHT22;11798;51.528;7.240;2022-08-11T17:10:57;28.90;90.50
23259;DHT22;11798;51.528;7.240;2022-08-11T17:13:46;28.80;90.10
23259;DHT22;11798;51.528;7.240;2022-08-11T17:16:16;28.70;90.20
23259;DHT22;11798;51.528;7.240;2022-08-11T17:18:49;28.70;90.40
23259;DHT22;11798;51.528;7.240;2022-08-11T17:21:22;28.60;90.60
23259;DHT22;11798;51.528;7.240;2022-08-11T17:23:56;28.60;90.40
23259;DHT22;11798;51.528;7.240;2022-08-11T17:26:40;28.60;90.00
23259;DHT22;11798;51.528;7.240;2022-08-11T17:29:36;28.50;90.00
23259;DHT22;11798;51.528;7.240;2022-08-11T17:32:05;28.50;90.10
23259;DHT22;11798;51.528;7.240;2022-08-11T17:34:52;28.40;90.00
23259;DHT22;11798;51.528;7.240;2022-08-11T17:37:39;28.30;90.30
23259;DHT22;11798;51.528;7.240;2022-08-11T17:40:08;28.30;90.70
23259;DHT22;11798;51.528;7.240;2022-08-11T17:42:36;28.20;90.70
23259;DHT22;11798;51.528;7.240;2022-08-11T17:45:22;28.20;91.10
23259;DHT22;11798;51.528;7.240;2022-08-11T17:48:08;28.10;90.90
23259;DHT22;11798;51.528;7.240;2022-08-11T17:51:06;28.10;91.30
23259;DHT22;11798;51.528;7.240;2022-08-11T17:53:41;28.00;91.50
23259;DHT22;11798;51.528;7.240;2022-08-11T17:56:29;27.90;91.80
23259;DHT22;11798;51.528;7.240;2022-08-11T17:59:14;27.90;91.60
23259;DHT22;11798;51.528;7.240;2022-08-11T18:02:01;27.90;91.80
23259;DHT22;11798;51.528;7.240;2022-08-11T18:04:49;27.80;91.60
23259;DHT22;11798;51.528;7.240;2022-08-11T18:07:17;27.70;91.60
23259;DHT22;11798;51.528;7.240;2022-08-11T18:10:05;27.70;91.90
23259;DHT22;11798;51.528;7.240;2022-08-11T18:12:51;27.60;91.90
23259;DHT22;11798;51.528;7.240;2022-08-11T18:15:39;27.50;92.20
23259;DHT22;11798;51.528;7.240;2022-08-11T18:18:23;27.40;92.50
23259;DHT22;11798;51.528;7.240;2022-08-11T18:21:10;27.40;92.60
23259;DHT22;11798;51.528;7.240;2022-08-11T18:23:56;27.20;92.60
23259;DHT22;11798;51.528;7.240;2022-08-11T18:26:42;27.20;92.90
23259;DHT22;11798;51.528;7.240;2022-08-11T18:29:29;27.10;93.10
23259;DHT22;11798;51.528;7.240;2022-08-11T18:32:16;27.00;93.20
23259;DHT22;11798;51.528;7.240;2022-08-11T18:35:01;26.90;93.20
23259;DHT22;11798;51.528;7.240;2022-08-11T18:37:48;26.80;93.20
23259;DHT22;11798;51.528;7.240;2022-08-11T18:40:34;26.70;93.40
23259;DHT22;11798;51.528;7.240;2022-08-11T18:43:20;26.60;93.50
23259;DHT22;11798;51.528;7.240;2022-08-11T18:46:08;26.50;93.50
23259;DHT22;11798;51.528;7.240;2022-08-11T18:49:07;26.40;94.00
23259;DHT22;11798;51.528;7.240;2022-08-11T18:51:54;26.30;94.20
23259;DHT22;11798;51.528;7.240;2022-08-11T18:54:42;26.20;94.00
23259;DHT22;11798;51.528;7.240;2022-08-11T18:57:28;26.10;94.40
23259;DHT22;11798;51.528;7.240;2022-08-11T19:00:13;26.00;94.50
23259;DHT22;11798;51.528;7.240;2022-08-11T19:02:57;25.90;94.90
23259;DHT22;11798;51.528;7.240;2022-08-11T19:05:44;25.80;94.80
23259;DHT22;11798;51.528;7.240;2022-08-11T19:08:36;25.70;96.20
23259;DHT22;11798;51.528;7.240;2022-08-11T19:11:23;25.60;95.80
23259;DHT22;11798;51.528;7.240;2022-08-11T19:14:09;25.40;96.80
23259;DHT22;11798;51.528;7.240;2022-08-11T19:16:57;25.30;96.80
23259;DHT22;11798;51.528;7.240;2022-08-11T19:19:43;25.20;97.00
23259;DHT22;11798;51.528;7.240;2022-08-11T19:22:29;25.10;96.90
23259;DHT22;11798;51.528;7.240;2022-08-11T19:25:16;25.00;97.60
23259;DHT22;11798;51.528;7.240;2022-08-11T19:28:03;24.80;97.80
23259;DHT22;11798;51.528;7.240;2022-08-11T19:30:49;24.70;99.00
23259;DHT22;11798;51.528;7.240;2022-08-11T19:33:33;24.60;98.80
23259;DHT22;11798;51.528;7.240;2022-08-11T19:36:18;24.40;98.80